createdAt,value
2023-03-22T00:01:31.058Z,15.59
2023-03-22T00:03:57.867Z,15.08
2023-03-22T00:06:24.871Z,15.09
2023-03-22T00:08:52.778Z,14.67
2023-03-22T00:11:20.641Z,15.10
2023-03-22T00:13:47.306Z,15.08
2023-03-22T00:16:14.561Z,15.09
2023-03-22T00:18:41.335Z,14.84
2023-03-22T00:21:11.868Z,15.15
2023-03-22T00:23:38.489Z,14.49
2023-03-22T00:26:05.306Z,14.92
2023-03-22T00:28:31.865Z,14.53
2023-03-22T00:31:00.234Z,14.82
2023-03-22T00:33:27.957Z,15.02
2023-03-22T00:35:57.307Z,15.15
2023-03-22T00:38:39.516Z,14.90
2023-03-22T00:41:19.151Z,14.93
2023-03-22T00:43:46.571Z,14.60
2023-03-22T00:46:13.621Z,14.51
2023-03-22T00:48:40.352Z,14.78
2023-03-22T00:51:07.795Z,14.64
2023-03-22T00:53:42.404Z,14.56
2023-03-22T00:56:10.819Z,13.84
2023-03-22T00:59:04.341Z,14.17
2023-03-22T01:01:31.164Z,13.99
2023-03-22T01:03:58.000Z,13.92
2023-03-22T01:06:24.748Z,14.33
2023-03-22T01:08:51.476Z,14.18
2023-03-22T01:11:18.352Z,14.46
2023-03-22T01:13:45.638Z,14.27
2023-03-22T01:16:13.626Z,14.05
2023-03-22T01:18:40.831Z,13.23
2023-03-22T01:21:08.972Z,13.41
2023-03-22T01:23:35.907Z,13.48
2023-03-22T01:26:02.887Z,13.16
2023-03-22T01:28:29.601Z,13.31
2023-03-22T01:30:56.640Z,13.79
2023-03-22T01:33:23.346Z,13.94
2023-03-22T01:35:51.593Z,13.99
2023-03-22T01:38:19.782Z,14.01
2023-03-22T01:40:57.215Z,13.82
2023-03-22T01:43:26.055Z,13.78
2023-03-22T01:45:53.823Z,13.46
2023-03-22T01:48:34.342Z,13.18
2023-03-22T01:51:04.478Z,13.54
2023-03-22T01:53:39.425Z,13.88
2023-03-22T01:56:07.775Z,13.76
2023-03-22T01:58:37.054Z,13.74
2023-03-22T02:01:06.577Z,13.75
2023-03-22T02:04:03.145Z,14.09
2023-03-22T02:06:30.032Z,13.22
2023-03-22T02:09:12.471Z,13.22
2023-03-22T02:11:41.939Z,12.85
2023-03-22T02:14:44.083Z,13.77
2023-03-22T02:17:51.321Z,14.01
2023-03-22T02:20:24.779Z,13.65
2023-03-22T02:22:53.246Z,13.30
2023-03-22T02:25:39.701Z,13.32
2023-03-22T02:28:26.009Z,13.26
2023-03-22T02:30:55.601Z,13.16
2023-03-22T02:33:45.571Z,13.67
2023-03-22T02:36:13.733Z,13.75
2023-03-22T02:39:04.685Z,13.87
2023-03-22T02:41:31.419Z,14.09
2023-03-22T02:44:06.625Z,14.18
2023-03-22T02:46:33.259Z,13.76
2023-03-22T02:49:14.174Z,13.93
2023-03-22T02:51:46.908Z,13.69
2023-03-22T02:54:21.092Z,13.28
2023-03-22T02:56:49.961Z,13.58
2023-03-22T02:59:17.024Z,13.48
2023-03-22T03:01:47.823Z,13.66
2023-03-22T03:04:18.358Z,12.94
2023-03-22T03:06:47.165Z,13.31
2023-03-22T03:09:18.098Z,13.32
2023-03-22T03:11:49.283Z,13.36
2023-03-22T03:14:23.731Z,13.06
2023-03-22T03:16:55.755Z,13.10
2023-03-22T03:19:34.079Z,13.90
2023-03-22T03:22:13.557Z,13.33
2023-03-22T03:24:46.582Z,13.46
2023-03-22T03:27:13.364Z,13.74
2023-03-22T03:29:40.019Z,13.88
2023-03-22T03:32:31.543Z,14.19
2023-03-22T03:35:01.432Z,14.28
2023-03-22T03:37:34.500Z,13.72
2023-03-22T03:40:06.096Z,13.13
2023-03-22T03:42:33.612Z,13.26
2023-03-22T03:45:01.045Z,13.74
2023-03-22T03:47:28.827Z,13.51
2023-03-22T03:49:55.938Z,13.91
2023-03-22T03:52:24.580Z,13.47
2023-03-22T03:54:52.694Z,13.31
2023-03-22T03:57:26.240Z,13.00
2023-03-22T03:59:53.406Z,13.55
2023-03-22T04:02:43.711Z,13.94
2023-03-22T04:05:24.656Z,14.16
2023-03-22T04:07:51.247Z,14.10
2023-03-22T04:10:18.756Z,14.12
2023-03-22T04:12:45.375Z,14.18
2023-03-22T04:15:16.554Z,13.82
2023-03-22T04:17:49.372Z,13.73
2023-03-22T04:20:17.191Z,13.59
2023-03-22T04:22:46.892Z,13.68
2023-03-22T04:25:14.273Z,14.10
2023-03-22T04:27:51.300Z,14.32
2023-03-22T04:30:20.311Z,13.68
2023-03-22T04:33:07.274Z,14.16
2023-03-22T04:36:05.629Z,13.89
2023-03-22T04:38:39.825Z,13.87
2023-03-22T04:41:10.898Z,14.05
2023-03-22T04:43:42.621Z,13.56
2023-03-22T04:46:13.841Z,13.55
2023-03-22T04:48:49.892Z,13.39
2023-03-22T04:51:17.619Z,13.84
2023-03-22T04:54:09.644Z,13.16
2023-03-22T04:56:41.386Z,14.01
2023-03-22T04:59:08.172Z,14.14
2023-03-22T05:01:35.478Z,13.62
2023-03-22T05:04:10.780Z,13.34
2023-03-22T05:06:37.641Z,13.33
2023-03-22T05:09:11.970Z,13.67
2023-03-22T05:11:40.793Z,13.39
2023-03-22T05:14:26.305Z,12.93
2023-03-22T05:16:53.180Z,13.73
2023-03-22T05:19:22.266Z,13.63
2023-03-22T05:21:57.867Z,13.58
2023-03-22T05:24:31.639Z,13.14
2023-03-22T05:27:01.176Z,13.64
2023-03-22T05:29:28.584Z,13.56
2023-03-22T05:32:04.516Z,13.69
2023-03-22T05:34:35.873Z,13.56
2023-03-22T05:37:13.848Z,13.46
2023-03-22T05:39:49.464Z,13.66
2023-03-22T05:42:16.881Z,12.99
2023-03-22T05:44:43.904Z,13.48
2023-03-22T05:47:12.920Z,13.59
2023-03-22T05:49:49.800Z,13.79
2023-03-22T05:52:17.708Z,14.03
2023-03-22T05:54:56.008Z,13.52
2023-03-22T05:57:22.676Z,13.84
2023-03-22T05:59:49.343Z,13.53
2023-03-22T06:02:23.473Z,13.62
2023-03-22T06:04:50.340Z,13.40
2023-03-22T06:07:18.042Z,13.77
2023-03-22T06:09:50.308Z,13.35
2023-03-22T06:12:24.661Z,13.34
2023-03-22T06:15:10.948Z,13.10
2023-03-22T06:17:51.389Z,13.74
2023-03-22T06:20:22.740Z,14.16
2023-03-22T06:22:55.420Z,14.07
2023-03-22T06:25:23.226Z,13.77
2023-03-22T06:27:50.255Z,13.90
2023-03-22T06:30:19.168Z,13.94
2023-03-22T06:33:09.648Z,14.28
2023-03-22T06:35:40.595Z,14.17
2023-03-22T06:38:09.833Z,14.32
2023-03-22T06:40:37.858Z,14.19
2023-03-22T06:43:07.239Z,14.16
2023-03-22T06:45:36.152Z,13.73
2023-03-22T06:48:04.384Z,14.21
2023-03-22T06:50:44.952Z,13.97
2023-03-22T06:53:15.772Z,13.79
2023-03-22T06:55:43.248Z,14.16
2023-03-22T06:58:13.882Z,14.50
2023-03-22T07:00:41.476Z,14.52
2023-03-22T07:03:08.700Z,14.66
2023-03-22T07:05:48.728Z,14.72
2023-03-22T07:08:16.193Z,14.21
2023-03-22T07:10:51.594Z,14.29
2023-03-22T07:13:21.174Z,13.58
2023-03-22T07:15:49.766Z,14.28
2023-03-22T07:18:34.795Z,14.76
2023-03-22T07:21:01.893Z,14.37
2023-03-22T07:23:29.038Z,14.74
2023-03-22T07:26:01.297Z,14.64
2023-03-22T07:28:32.054Z,14.88
2023-03-22T07:31:01.356Z,14.15
2023-03-22T07:33:31.169Z,14.62
2023-03-22T07:35:58.155Z,14.67
2023-03-22T07:38:25.153Z,14.83
2023-03-22T07:40:55.029Z,15.02
2023-03-22T07:43:25.658Z,14.28
2023-03-22T07:45:56.134Z,14.41
2023-03-22T07:48:48.597Z,14.23
2023-03-22T07:51:30.408Z,14.06
2023-03-22T07:53:57.834Z,13.95
2023-03-22T07:56:26.103Z,13.76
2023-03-22T07:58:53.199Z,14.57
2023-03-22T08:01:19.825Z,14.62
2023-03-22T08:04:02.829Z,14.95
2023-03-22T08:06:37.890Z,14.96
2023-03-22T08:09:05.417Z,14.68
2023-03-22T08:11:32.497Z,14.80
2023-03-22T08:13:59.287Z,14.77
2023-03-22T08:16:26.398Z,14.58
2023-03-22T08:18:53.323Z,15.14
2023-03-22T08:21:21.362Z,14.65
2023-03-22T08:23:53.128Z,14.28
2023-03-22T08:26:45.749Z,14.25
2023-03-22T08:29:23.211Z,14.28
2023-03-22T08:31:51.019Z,14.06
2023-03-22T08:34:18.130Z,14.37
2023-03-22T08:36:45.422Z,14.44
2023-03-22T08:39:12.596Z,14.43
2023-03-22T08:41:56.320Z,14.60
2023-03-22T08:44:25.885Z,14.03
2023-03-22T08:46:52.832Z,13.90
2023-03-22T08:49:19.631Z,14.28
2023-03-22T08:51:57.697Z,14.11
2023-03-22T08:54:56.811Z,14.38
2023-03-22T08:57:53.744Z,14.92
2023-03-22T09:00:48.196Z,15.22
2023-03-22T09:03:36.975Z,15.20
2023-03-22T09:06:04.611Z,15.41
2023-03-22T09:08:36.912Z,15.14
2023-03-22T09:11:09.389Z,15.12
2023-03-22T09:13:36.295Z,15.45
2023-03-22T09:16:04.270Z,15.51
2023-03-22T09:18:33.051Z,15.30
2023-03-22T09:21:03.674Z,15.22
2023-03-22T09:23:37.985Z,14.87
2023-03-22T09:26:08.988Z,15.09
2023-03-22T09:28:36.828Z,15.11
2023-03-22T09:31:06.817Z,14.82
2023-03-22T09:33:34.708Z,15.01
2023-03-22T09:36:02.034Z,14.30
2023-03-22T09:38:33.294Z,14.62
2023-03-22T09:41:27.256Z,14.88
2023-03-22T09:43:57.044Z,15.39
2023-03-22T09:46:37.580Z,15.63
2023-03-22T09:49:16.202Z,15.76
2023-03-22T09:51:47.422Z,15.46
2023-03-22T09:54:21.415Z,15.84
2023-03-22T09:56:54.594Z,15.82
2023-03-22T09:59:33.105Z,15.83
2023-03-22T10:02:01.251Z,15.77
2023-03-22T10:04:34.035Z,15.71
2023-03-22T10:07:19.870Z,15.91
2023-03-22T10:09:57.853Z,16.01
2023-03-22T10:12:28.711Z,15.90
2023-03-22T10:15:15.708Z,16.14
2023-03-22T10:17:44.925Z,16.25
2023-03-22T10:20:11.632Z,15.79
2023-03-22T10:22:40.740Z,16.13
2023-03-22T10:25:09.589Z,16.21
2023-03-22T10:27:37.341Z,16.40
2023-03-22T10:30:04.026Z,16.50
2023-03-22T10:32:56.406Z,16.37
2023-03-22T10:35:24.691Z,16.36
2023-03-22T10:37:52.549Z,16.40
2023-03-22T10:40:20.804Z,16.29
2023-03-22T10:42:55.865Z,16.24
2023-03-22T10:45:24.475Z,16.31
2023-03-22T10:48:00.442Z,16.35
2023-03-22T10:50:32.349Z,16.39
2023-03-22T10:53:11.573Z,16.56
2023-03-22T10:55:43.534Z,16.52
2023-03-22T10:58:12.256Z,16.74
2023-03-22T11:00:43.597Z,16.79
2023-03-22T11:03:22.885Z,16.85
2023-03-22T11:05:57.981Z,16.75
2023-03-22T11:08:24.751Z,16.82
2023-03-22T11:10:52.495Z,16.64
2023-03-22T11:13:22.433Z,16.52
2023-03-22T11:15:51.321Z,16.48
2023-03-22T11:18:18.812Z,16.59
2023-03-22T11:20:57.620Z,16.68
2023-03-22T11:23:25.004Z,16.66
2023-03-22T11:25:52.625Z,16.55
2023-03-22T11:28:21.254Z,16.60
2023-03-22T11:30:59.132Z,16.02
2023-03-22T11:33:26.849Z,16.41
2023-03-22T11:35:58.030Z,16.45
2023-03-22T11:38:26.359Z,16.33
2023-03-22T11:40:55.062Z,16.59
2023-03-22T11:43:27.749Z,16.51
2023-03-22T11:45:56.754Z,16.22
2023-03-22T11:48:27.460Z,16.49
2023-03-22T11:50:55.814Z,16.62
2023-03-22T11:53:24.598Z,16.48
2023-03-22T11:55:53.217Z,16.26
2023-03-22T11:58:40.898Z,16.38
2023-03-22T12:01:11.010Z,16.35
2023-03-22T12:03:39.996Z,15.36
2023-03-22T12:06:24.486Z,15.60
2023-03-22T12:08:54.346Z,15.86
2023-03-22T12:11:41.192Z,15.78
2023-03-22T12:14:21.841Z,15.64
2023-03-22T12:16:55.071Z,15.63
2023-03-22T12:19:40.916Z,15.43
2023-03-22T12:22:16.364Z,15.87
2023-03-22T12:24:43.229Z,15.46
2023-03-22T12:27:16.813Z,15.03
2023-03-22T12:29:47.178Z,14.93
2023-03-22T12:32:18.287Z,15.50
2023-03-22T12:34:48.157Z,16.04
2023-03-22T12:37:17.841Z,15.94
2023-03-22T12:39:54.191Z,16.46
2023-03-22T12:42:27.404Z,16.64
2023-03-22T12:45:05.464Z,16.56
2023-03-22T12:47:38.543Z,16.95
2023-03-22T12:50:11.928Z,17.04
2023-03-22T12:52:45.610Z,17.00
2023-03-22T12:55:24.592Z,17.32
2023-03-22T12:57:52.625Z,17.23
2023-03-22T13:00:20.762Z,16.95
2023-03-22T13:03:13.995Z,16.75
2023-03-22T13:05:41.175Z,16.65
2023-03-22T13:08:07.905Z,17.01
2023-03-22T13:10:36.529Z,16.95
2023-03-22T13:13:15.630Z,16.60
2023-03-22T13:16:00.911Z,16.58
2023-03-22T13:18:33.461Z,16.78
2023-03-22T13:21:09.475Z,16.15
2023-03-22T13:23:36.209Z,16.66
2023-03-22T13:26:04.529Z,16.39
2023-03-22T13:28:37.186Z,16.56
2023-03-22T13:31:04.675Z,16.29
2023-03-22T13:33:35.930Z,16.67
2023-03-22T13:36:07.575Z,16.71
2023-03-22T13:38:42.537Z,16.76
2023-03-22T13:41:20.907Z,16.67
2023-03-22T13:44:10.793Z,16.76
2023-03-22T13:46:37.529Z,16.79
2023-03-22T13:49:04.345Z,16.89
2023-03-22T13:51:32.250Z,17.10
2023-03-22T13:54:00.536Z,17.31
2023-03-22T13:56:43.018Z,17.31
2023-03-22T13:59:19.165Z,17.50
2023-03-22T14:01:49.408Z,17.64
2023-03-22T14:04:31.347Z,18.42
2023-03-22T14:07:19.521Z,18.90
2023-03-22T14:09:50.151Z,17.94
2023-03-22T14:12:27.622Z,18.26
2023-03-22T14:15:00.391Z,17.99
2023-03-22T14:17:31.775Z,17.68
2023-03-22T14:19:59.186Z,17.02
